Time;durP1;ratioP1;P1;durP2;ratioP2;P2;SDS_P1;SDS_P2;PMS_P1;PMS_P2;Temp;Humidity;BMP_temperature;BMP_pressure;BME280_temperature;BME280_humidity;BME280_pressure;Samples;Min_cycle;Max_cycle;Signal;HPM_P1;HPM_P2
2022/01/31 00:01:20;;;;;;;;;;;;;;;;;;5136971;27;19915;-72
2022/01/31 00:03:45;;;;;;;;;;;;;;;;;;5136829;27;20272;-72
2022/01/31 00:06:10;;;;;;;;;;;;;;;;;;5136911;27;19915;-72
2022/01/31 00:08:36;;;;;;;;;;;;;;;;;;5136590;27;19916;-72
2022/01/31 00:11:01;;;;;;;;;;;;;;;;;;5136465;27;20268;-72
2022/01/31 00:13:39;;;;;;;;;;;;;;;;;;5118206;27;19977;-72
2022/01/31 00:16:07;;;;;;;;;;;;;;;;;;5136614;27;20312;-72
2022/01/31 00:18:32;;;;;;;;;;;;;;;;;;5118366;27;19938;-72
2022/01/31 00:20:57;;;;;;;;;;;;;;;;;;5118388;27;20348;-72
2022/01/31 00:23:23;;;;;;;;;;;;;;;;;;5136410;27;19915;-72
2022/01/31 00:25:48;;;;;;;;;;;;;;;;;;5136306;27;20415;-72
2022/01/31 00:28:14;;;;;;;;;;;;;;;;;;5136081;27;19923;-72
2022/01/31 00:30:39;;;;;;;;;;;;;;;;;;5136606;27;19943;-72
2022/01/31 00:33:05;;;;;;;;;;;;;;;;;;5118540;27;20371;-72
2022/01/31 00:35:30;;;;;;;;;;;;;;;;;;5136268;27;19915;-72
2022/01/31 00:37:55;;;;;;;;;;;;;;;;;;5118102;27;19916;-72
2022/01/31 00:40:21;;;;;;;;;;;;;;;;;;5136442;27;20276;-72
2022/01/31 00:42:46;;;;;;;;;;;;;;;;;;5117392;27;19920;-72
2022/01/31 00:47:44;;;;;;;;;;;;;;;;;;5136364;27;19923;-72
2022/01/31 00:50:11;;;;;;;;;;;;;;;;;;5136132;27;19919;-72
2022/01/31 00:52:37;;;;;;;;;;;;;;;;;;5117612;27;20006;-72
2022/01/31 00:55:03;;;;;;;;;;;;;;;;;;5136067;27;19918;-72
2022/01/31 00:57:29;;;;;;;;;;;;;;;;;;5117776;27;19915;-72
2022/01/31 00:59:54;;;;;;;;;;;;;;;;;;5117303;27;19915;-72
2022/01/31 01:02:23;;;;;;;;;;;;;;;;;;5116927;27;20296;-72
2022/01/31 01:04:50;;;;;;;;;;;;;;;;;;5116996;27;19957;-72
2022/01/31 01:07:15;;;;;;;;;;;;;;;;;;5117325;27;19915;-72
2022/01/31 01:09:44;;;;;;;;;;;;;;;;;;5135238;27;19916;-72
2022/01/31 01:12:10;;;;;;;;;;;;;;;;;;5117452;27;20006;-72
2022/01/31 01:14:35;;;;;;;;;;;;;;;;;;5135594;27;20347;-71
2022/01/31 01:17:01;;;;;;;;;;;;;;;;;;5135429;27;19919;-72
2022/01/31 01:19:26;;;;;;;;;;;;;;;;;;5135509;27;20365;-72
2022/01/31 01:21:51;;;;;;;;;;;;;;;;;;5135618;27;19915;-72
2022/01/31 01:24:17;;;;;;;;;;;;;;;;;;5116932;27;19919;-72
2022/01/31 01:26:42;;;;;;;;;;;;;;;;;;5135496;27;20057;-72
2022/01/31 01:29:09;;;;;;;;;;;;;;;;;;5116732;27;19961;-72
2022/01/31 01:31:34;;;;;;;;;;;;;;;;;;5135383;27;19970;-72
2022/01/31 01:34:00;;;;;;;;;;;;;;;;;;5135217;27;19915;-72
2022/01/31 01:36:25;;;;;;;;;;;;;;;;;;5135481;27;19922;-71
2022/01/31 01:38:51;;;;;;;;;;;;;;;;;;5116953;27;20367;-72
2022/01/31 01:41:17;;;;;;;;;;;;;;;;;;5116647;27;20010;-72
2022/01/31 01:43:42;;;;;;;;;;;;;;;;;;5116959;27;19920;-72
2022/01/31 01:46:09;;;;;;;;;;;;;;;;;;5116812;27;19916;-72
2022/01/31 01:48:34;;;;;;;;;;;;;;;;;;5116400;27;19955;-72
2022/01/31 01:51:00;;;;;;;;;;;;;;;;;;5116628;27;20343;-72
2022/01/31 01:53:26;;;;;;;;;;;;;;;;;;5115701;28;19957;-72
2022/01/31 01:55:53;;;;;;;;;;;;;;;;;;5116551;27;19915;-72
2022/01/31 01:58:22;;;;;;;;;;;;;;;;;;5116687;27;19916;-72
2022/01/31 02:00:50;;;;;;;;;;;;;;;;;;5116702;27;20264;-72
2022/01/31 02:03:21;;;;;;;;;;;;;;;;;;5116763;27;19915;-72
2022/01/31 02:05:47;;;;;;;;;;;;;;;;;;5116262;27;19922;-72
2022/01/31 02:08:13;;;;;;;;;;;;;;;;;;5116496;27;20292;-72
2022/01/31 02:10:39;;;;;;;;;;;;;;;;;;5134814;27;19927;-72
2022/01/31 02:13:15;;;;;;;;;;;;;;;;;;5134904;27;20338;-72
2022/01/31 02:16:10;;;;;;;;;;;;;;;;;;5058161;28;19927;-72
2022/01/31 02:19:08;;;;;;;;;;;;;;;;;;5096973;28;19973;-72
2022/01/31 02:22:02;;;;;;;;;;;;;;;;;;5095978;28;19916;-72
2022/01/31 02:24:46;;;;;;;;;;;;;;;;;;5113918;28;19968;-72
2022/01/31 02:27:27;;;;;;;;;;;;;;;;;;5114274;28;19919;-72
2022/01/31 02:29:53;;;;;;;;;;;;;;;;;;5095680;28;19938;-72
2022/01/31 02:32:20;;;;;;;;;;;;;;;;;;5113899;28;20361;-71
2022/01/31 02:34:48;;;;;;;;;;;;;;;;;;5079263;28;19920;-72
2022/01/31 02:37:14;;;;;;;;;;;;;;;;;;5095475;28;20365;-72
2022/01/31 02:39:39;;;;;;;;;;;;;;;;;;5098051;28;19930;-72
2022/01/31 02:42:05;;;;;;;;;;;;;;;;;;5116078;28;19964;-72
2022/01/31 02:44:30;;;;;;;;;;;;;;;;;;5115998;28;19915;-72
2022/01/31 02:47:15;;;;;;;;;;;;;;;;;;5134616;28;19916;-72
2022/01/31 02:49:48;;;;;;;;;;;;;;;;;;5115933;28;19915;-72
2022/01/31 02:52:15;;;;;;;;;;;;;;;;;;5115289;28;20393;-71
2022/01/31 02:54:40;;;;;;;;;;;;;;;;;;5116184;28;19915;-72
2022/01/31 02:57:05;;;;;;;;;;;;;;;;;;5098773;28;19923;-71
2022/01/31 02:59:34;;;;;;;;;;;;;;;;;;5115978;28;19923;-72
2022/01/31 03:01:59;;;;;;;;;;;;;;;;;;5134443;28;19915;-72
2022/01/31 03:04:25;;;;;;;;;;;;;;;;;;5134276;27;19922;-72
2022/01/31 03:06:50;;;;;;;;;;;;;;;;;;5119855;27;19915;-71
2022/01/31 03:09:19;;;;;;;;;;;;;;;;;;5119906;27;19922;-72
2022/01/31 03:11:47;;;;;;;;;;;;;;;;;;5119693;27;19923;-72
2022/01/31 03:14:16;;;;;;;;;;;;;;;;;;5119922;27;19922;-72
2022/01/31 03:16:46;;;;;;;;;;;;;;;;;;5119336;27;19924;-72
2022/01/31 03:19:17;;;;;;;;;;;;;;;;;;5119328;27;19916;-71
2022/01/31 03:21:45;;;;;;;;;;;;;;;;;;5103112;27;19915;-72
2022/01/31 03:24:11;;;;;;;;;;;;;;;;;;5138090;27;19915;-72
2022/01/31 03:26:36;;;;;;;;;;;;;;;;;;5137544;27;19915;-71
2022/01/31 03:29:02;;;;;;;;;;;;;;;;;;5137594;27;19962;-72
2022/01/31 03:31:28;;;;;;;;;;;;;;;;;;5119248;27;19930;-72
2022/01/31 03:33:53;;;;;;;;;;;;;;;;;;5137871;27;19920;-72
2022/01/31 03:36:19;;;;;;;;;;;;;;;;;;5119227;27;19919;-71
2022/01/31 03:38:45;;;;;;;;;;;;;;;;;;5137721;27;19938;-72
2022/01/31 03:41:12;;;;;;;;;;;;;;;;;;5119128;27;20014;-72
2022/01/31 03:43:38;;;;;;;;;;;;;;;;;;5119176;27;20330;-72
2022/01/31 03:46:04;;;;;;;;;;;;;;;;;;5119098;27;20056;-72
2022/01/31 03:48:29;;;;;;;;;;;;;;;;;;5137459;27;19915;-72
2022/01/31 03:50:59;;;;;;;;;;;;;;;;;;5118777;27;19920;-71
2022/01/31 03:53:27;;;;;;;;;;;;;;;;;;5119080;27;20015;-72
2022/01/31 03:55:53;;;;;;;;;;;;;;;;;;5118826;27;19919;-72
2022/01/31 03:58:18;;;;;;;;;;;;;;;;;;5118030;27;19915;-71
2022/01/31 04:00:58;;;;;;;;;;;;;;;;;;5117652;27;19922;-71
2022/01/31 04:03:23;;;;;;;;;;;;;;;;;;5136849;27;20334;-72
2022/01/31 04:05:48;;;;;;;;;;;;;;;;;;5137055;27;19915;-71
2022/01/31 04:08:13;;;;;;;;;;;;;;;;;;5137272;27;19961;-71
2022/01/31 04:10:39;;;;;;;;;;;;;;;;;;5136840;27;19965;-71
2022/01/31 04:13:07;;;;;;;;;;;;;;;;;;5136932;27;19926;-72
2022/01/31 04:15:36;;;;;;;;;;;;;;;;;;5137001;27;19972;-72
2022/01/31 04:18:02;;;;;;;;;;;;;;;;;;5136280;27;19921;-72
2022/01/31 04:20:27;;;;;;;;;;;;;;;;;;5136962;27;20339;-71
2022/01/31 04:22:58;;;;;;;;;;;;;;;;;;5137296;27;20284;-71
2022/01/31 04:28:16;;;;;;;;;;;;;;;;;;5136905;27;20010;-71
2022/01/31 04:30:57;;;;;;;;;;;;;;;;;;5118558;27;19919;-71
2022/01/31 04:33:23;;;;;;;;;;;;;;;;;;5136859;27;19915;-71
2022/01/31 04:35:49;;;;;;;;;;;;;;;;;;5136747;27;19915;-70
2022/01/31 04:38:14;;;;;;;;;;;;;;;;;;5136719;27;20010;-70
2022/01/31 04:40:39;;;;;;;;;;;;;;;;;;5136670;27;19923;-70
2022/01/31 04:43:04;;;;;;;;;;;;;;;;;;5136749;27;20018;-71
2022/01/31 04:45:30;;;;;;;;;;;;;;;;;;5137005;27;19973;-70
2022/01/31 04:47:55;;;;;;;;;;;;;;;;;;5136661;27;20404;-70
2022/01/31 04:50:20;;;;;;;;;;;;;;;;;;5136658;27;19920;-70
2022/01/31 04:52:45;;;;;;;;;;;;;;;;;;5118315;27;19915;-70
2022/01/31 04:55:11;;;;;;;;;;;;;;;;;;5136868;27;20441;-70
2022/01/31 04:57:36;;;;;;;;;;;;;;;;;;5137042;27;19941;-69
2022/01/31 05:00:05;;;;;;;;;;;;;;;;;;5137221;27;19915;-70
2022/01/31 05:02:31;;;;;;;;;;;;;;;;;;5137025;27;19915;-71
2022/01/31 05:04:56;;;;;;;;;;;;;;;;;;5137208;27;19915;-70
2022/01/31 05:07:21;;;;;;;;;;;;;;;;;;5136923;27;20292;-70
2022/01/31 05:09:47;;;;;;;;;;;;;;;;;;5136866;27;20284;-70
2022/01/31 05:12:12;;;;;;;;;;;;;;;;;;5137095;27;19915;-70
2022/01/31 05:14:38;;;;;;;;;;;;;;;;;;5136907;27;19919;-71
2022/01/31 05:17:03;;;;;;;;;;;;;;;;;;5136652;27;20006;-70
2022/01/31 05:19:28;;;;;;;;;;;;;;;;;;5136574;27;19915;-70
2022/01/31 05:21:53;;;;;;;;;;;;;;;;;;5136393;27;20365;-70
2022/01/31 05:24:19;;;;;;;;;;;;;;;;;;5136983;27;19925;-70
2022/01/31 05:26:46;;;;;;;;;;;;;;;;;;5136874;27;19916;-70
2022/01/31 05:29:11;;;;;;;;;;;;;;;;;;5136337;27;19922;-71
2022/01/31 05:31:37;;;;;;;;;;;;;;;;;;5135691;27;19923;-70
2022/01/31 05:34:02;;;;;;;;;;;;;;;;;;5136823;27;19911;-71
2022/01/31 05:36:27;;;;;;;;;;;;;;;;;;5136621;27;19922;-71
2022/01/31 05:38:53;;;;;;;;;;;;;;;;;;5135871;27;20373;-71
2022/01/31 05:41:19;;;;;;;;;;;;;;;;;;5135414;27;19945;-71
2022/01/31 05:43:45;;;;;;;;;;;;;;;;;;5135713;27;19922;-71
2022/01/31 05:46:11;;;;;;;;;;;;;;;;;;5135529;27;19915;-71
2022/01/31 05:48:36;;;;;;;;;;;;;;;;;;5134962;27;20295;-71
2022/01/31 05:51:02;;;;;;;;;;;;;;;;;;5135352;27;19920;-71
2022/01/31 05:53:27;;;;;;;;;;;;;;;;;;5135492;27;19927;-71
2022/01/31 05:55:53;;;;;;;;;;;;;;;;;;5136100;27;19916;-71
2022/01/31 05:58:18;;;;;;;;;;;;;;;;;;5135561;27;19959;-71
2022/01/31 06:00:43;;;;;;;;;;;;;;;;;;5117794;27;19915;-71
2022/01/31 06:03:09;;;;;;;;;;;;;;;;;;5135666;27;20357;-71
2022/01/31 06:05:34;;;;;;;;;;;;;;;;;;5135625;27;19938;-71
2022/01/31 06:07:59;;;;;;;;;;;;;;;;;;5135557;27;20296;-71
2022/01/31 06:10:25;;;;;;;;;;;;;;;;;;5134819;27;19964;-70
2022/01/31 06:12:54;;;;;;;;;;;;;;;;;;5135080;27;19915;-71
2022/01/31 06:15:20;;;;;;;;;;;;;;;;;;5134781;27;19916;-71
2022/01/31 06:17:45;;;;;;;;;;;;;;;;;;5135071;28;19916;-70
2022/01/31 06:20:10;;;;;;;;;;;;;;;;;;5134839;27;19922;-70
2022/01/31 06:22:43;;;;;;;;;;;;;;;;;;5135057;28;19915;-70
2022/01/31 06:25:09;;;;;;;;;;;;;;;;;;5135010;28;20432;-70
2022/01/31 06:27:38;;;;;;;;;;;;;;;;;;5116723;28;19915;-70
2022/01/31 06:30:04;;;;;;;;;;;;;;;;;;5116069;28;19923;-71
2022/01/31 06:32:32;;;;;;;;;;;;;;;;;;5116514;28;19922;-70
2022/01/31 06:34:58;;;;;;;;;;;;;;;;;;5134945;28;19919;-70
2022/01/31 06:37:23;;;;;;;;;;;;;;;;;;5135128;28;19915;-70
2022/01/31 06:39:48;;;;;;;;;;;;;;;;;;5136448;27;19920;-70
2022/01/31 06:42:15;;;;;;;;;;;;;;;;;;5120922;27;19968;-70
2022/01/31 06:44:40;;;;;;;;;;;;;;;;;;5139254;27;19915;-70
2022/01/31 06:47:05;;;;;;;;;;;;;;;;;;5137997;27;19939;-70
2022/01/31 06:49:30;;;;;;;;;;;;;;;;;;5120470;27;19915;-70
2022/01/31 06:51:56;;;;;;;;;;;;;;;;;;5139091;27;19919;-71
2022/01/31 06:54:21;;;;;;;;;;;;;;;;;;5139277;27;20363;-71
2022/01/31 06:56:46;;;;;;;;;;;;;;;;;;5139365;27;19987;-71
2022/01/31 06:59:12;;;;;;;;;;;;;;;;;;5121302;27;20014;-71
2022/01/31 07:01:37;;;;;;;;;;;;;;;;;;5138710;27;19919;-71
2022/01/31 07:04:03;;;;;;;;;;;;;;;;;;5138904;27;19915;-71
2022/01/31 07:06:28;;;;;;;;;;;;;;;;;;5138843;27;20373;-70
2022/01/31 07:08:53;;;;;;;;;;;;;;;;;;5138640;27;19916;-71
2022/01/31 07:11:25;;;;;;;;;;;;;;;;;;5119995;27;20341;-71
2022/01/31 07:14:01;;;;;;;;;;;;;;;;;;5120235;27;20365;-71
2022/01/31 07:16:27;;;;;;;;;;;;;;;;;;5138629;27;19964;-72
2022/01/31 07:18:59;;;;;;;;;;;;;;;;;;5138675;27;19919;-72
2022/01/31 07:21:32;;;;;;;;;;;;;;;;;;5120689;27;19916;-72
2022/01/31 07:26:43;;;;;;;;;;;;;;;;;;5120287;27;20011;-72
2022/01/31 07:29:09;;;;;;;;;;;;;;;;;;5134907;27;19923;-73
2022/01/31 07:31:34;;;;;;;;;;;;;;;;;;5138029;27;19972;-72
2022/01/31 07:34:00;;;;;;;;;;;;;;;;;;5138110;27;20407;-71
2022/01/31 07:36:25;;;;;;;;;;;;;;;;;;5138027;27;19954;-72
2022/01/31 07:38:50;;;;;;;;;;;;;;;;;;5137418;27;19915;-71
2022/01/31 07:41:16;;;;;;;;;;;;;;;;;;5137705;27;19922;-71
2022/01/31 07:43:43;;;;;;;;;;;;;;;;;;5118920;27;20270;-72
2022/01/31 07:46:12;;;;;;;;;;;;;;;;;;5137807;27;19919;-71
2022/01/31 07:48:38;;;;;;;;;;;;;;;;;;5137467;27;19965;-71
2022/01/31 07:51:03;;;;;;;;;;;;;;;;;;5136464;27;19955;-71
2022/01/31 07:53:28;;;;;;;;;;;;;;;;;;5136317;27;19923;-70
2022/01/31 07:55:53;;;;;;;;;;;;;;;;;;5119296;27;20003;-70
2022/01/31 07:58:20;;;;;;;;;;;;;;;;;;5137820;27;19916;-70
2022/01/31 08:00:45;;;;;;;;;;;;;;;;;;5137170;27;19915;-71
2022/01/31 08:03:11;;;;;;;;;;;;;;;;;;5137538;27;19915;-71
2022/01/31 08:05:37;;;;;;;;;;;;;;;;;;5137375;27;20448;-70
2022/01/31 08:08:02;;;;;;;;;;;;;;;;;;5118690;27;20010;-71
2022/01/31 08:10:27;;;;;;;;;;;;;;;;;;5137019;27;19923;-71
2022/01/31 08:12:55;;;;;;;;;;;;;;;;;;5118554;27;19922;-70
2022/01/31 08:15:25;;;;;;;;;;;;;;;;;;5136916;27;19919;-70
2022/01/31 08:17:50;;;;;;;;;;;;;;;;;;5137222;27;19915;-70
2022/01/31 08:20:16;;;;;;;;;;;;;;;;;;5137222;27;19922;-70
2022/01/31 08:22:41;;;;;;;;;;;;;;;;;;5137334;27;19982;-70
2022/01/31 08:25:13;;;;;;;;;;;;;;;;;;5135908;27;20395;-70
2022/01/31 08:27:40;;;;;;;;;;;;;;;;;;5136899;27;19915;-70
2022/01/31 08:30:10;;;;;;;;;;;;;;;;;;5118485;27;20417;-70
2022/01/31 08:32:44;;;;;;;;;;;;;;;;;;5137503;27;20010;-72
2022/01/31 08:37:53;;;;;;;;;;;;;;;;;;5137321;27;19922;-71
2022/01/31 08:40:19;;;;;;;;;;;;;;;;;;5137064;27;19916;-70
2022/01/31 08:42:44;;;;;;;;;;;;;;;;;;5119067;27;20015;-70
2022/01/31 08:45:09;;;;;;;;;;;;;;;;;;5136533;27;19958;-70
2022/01/31 08:47:35;;;;;;;;;;;;;;;;;;5136920;27;20006;-70
2022/01/31 08:50:01;;;;;;;;;;;;;;;;;;5136790;27;20233;-70
2022/01/31 08:52:26;;;;;;;;;;;;;;;;;;5136185;27;19920;-70
2022/01/31 08:54:51;;;;;;;;;;;;;;;;;;5136373;27;19915;-70
2022/01/31 08:57:17;;;;;;;;;;;;;;;;;;5135973;27;19919;-70
2022/01/31 08:59:45;;;;;;;;;;;;;;;;;;5136539;27;20006;-70
2022/01/31 09:02:16;;;;;;;;;;;;;;;;;;5135890;27;19915;-70
2022/01/31 09:04:52;;;;;;;;;;;;;;;;;;5118010;27;19922;-70
2022/01/31 09:07:19;;;;;;;;;;;;;;;;;;5136365;27;20017;-71
2022/01/31 09:09:49;;;;;;;;;;;;;;;;;;5137660;27;20382;-73
2022/01/31 09:12:16;;;;;;;;;;;;;;;;;;5136928;27;19927;-73
2022/01/31 09:14:41;;;;;;;;;;;;;;;;;;5118335;27;19915;-74
2022/01/31 09:17:07;;;;;;;;;;;;;;;;;;5136620;27;19930;-73
2022/01/31 09:19:32;;;;;;;;;;;;;;;;;;5136420;27;20014;-72
2022/01/31 09:21:59;;;;;;;;;;;;;;;;;;5136868;27;19922;-73
2022/01/31 09:24:24;;;;;;;;;;;;;;;;;;5137545;27;19972;-73
2022/01/31 09:26:50;;;;;;;;;;;;;;;;;;5137098;27;19916;-74
2022/01/31 09:29:17;;;;;;;;;;;;;;;;;;5137203;27;19915;-75
2022/01/31 09:31:42;;;;;;;;;;;;;;;;;;5136369;27;19919;-74
2022/01/31 09:34:08;;;;;;;;;;;;;;;;;;5136177;27;19964;-74
2022/01/31 09:36:33;;;;;;;;;;;;;;;;;;5100157;27;20014;-73
2022/01/31 09:38:59;;;;;;;;;;;;;;;;;;5135449;27;19915;-73
2022/01/31 09:41:26;;;;;;;;;;;;;;;;;;5135002;27;19968;-73
2022/01/31 09:44:06;;;;;;;;;;;;;;;;;;5136235;27;19920;-75
2022/01/31 09:46:46;;;;;;;;;;;;;;;;;;5100358;27;19922;-74
2022/01/31 09:49:12;;;;;;;;;;;;;;;;;;5117507;27;19967;-73
2022/01/31 09:51:37;;;;;;;;;;;;;;;;;;5117494;27;19923;-73
2022/01/31 09:54:03;;;;;;;;;;;;;;;;;;5117174;27;19915;-74
2022/01/31 09:56:31;;;;;;;;;;;;;;;;;;5114385;27;19973;-73
2022/01/31 09:58:57;;;;;;;;;;;;;;;;;;5114101;27;20384;-71
2022/01/31 10:01:26;;;;;;;;;;;;;;;;;;5133990;27;19919;-72
2022/01/31 10:03:53;;;;;;;;;;;;;;;;;;5135292;27;19915;-73
2022/01/31 10:06:23;;;;;;;;;;;;;;;;;;5116714;27;19915;-73
2022/01/31 10:09:00;;;;;;;;;;;;;;;;;;5136179;27;19915;-76
2022/01/31 10:11:29;;;;;;;;;;;;;;;;;;5138800;27;19919;-78
2022/01/31 10:16:45;;;;;;;;;;;;;;;;;;5134907;27;19919;-74
2022/01/31 10:19:11;;;;;;;;;;;;;;;;;;5099928;28;20376;-75
2022/01/31 10:21:53;;;;;;;;;;;;;;;;;;5115432;28;19915;-73
2022/01/31 10:24:22;;;;;;;;;;;;;;;;;;5134153;28;20123;-75
2022/01/31 10:26:47;;;;;;;;;;;;;;;;;;5133793;28;19919;-73
2022/01/31 10:29:15;;;;;;;;;;;;;;;;;;5135586;27;19921;-71
2022/01/31 10:32:03;;;;;;;;;;;;;;;;;;5134852;28;20357;-71
2022/01/31 10:34:31;;;;;;;;;;;;;;;;;;5101551;28;19923;-72
2022/01/31 10:37:01;;;;;;;;;;;;;;;;;;5135842;28;19923;-73
2022/01/31 10:51:02;;;;;;;;;;;;;;;;;;5136959;28;19919;-72
2022/01/31 10:53:36;;;;;;;;;;;;;;;;;;5118446;28;19919;-72
2022/01/31 10:56:02;;;;;;;;;;;;;;;;;;5135676;28;20042;-72
2022/01/31 10:58:28;;;;;;;;;;;;;;;;;;5135256;27;20036;-71
2022/01/31 11:00:53;;;;;;;;;;;;;;;;;;5135223;28;19915;-72
2022/01/31 11:03:29;;;;;;;;;;;;;;;;;;5116928;28;19918;-74
2022/01/31 11:05:55;;;;;;;;;;;;;;;;;;5135445;28;20181;-72
2022/01/31 11:08:20;;;;;;;;;;;;;;;;;;5135323;27;19915;-73
2022/01/31 11:10:46;;;;;;;;;;;;;;;;;;5135817;28;20282;-73
2022/01/31 11:13:12;;;;;;;;;;;;;;;;;;5117299;28;19919;-72
2022/01/31 11:15:37;;;;;;;;;;;;;;;;;;5135231;28;19923;-72
2022/01/31 11:18:06;;;;;;;;;;;;;;;;;;5135117;28;20011;-73
2022/01/31 11:20:31;;;;;;;;;;;;;;;;;;5135432;27;20019;-74
2022/01/31 11:22:58;;;;;;;;;;;;;;;;;;5136219;28;19919;-74
2022/01/31 11:25:26;;;;;;;;;;;;;;;;;;5134924;27;20042;-74
2022/01/31 11:27:53;;;;;;;;;;;;;;;;;;5138535;27;19958;-73
2022/01/31 11:30:18;;;;;;;;;;;;;;;;;;5137898;27;19976;-72
2022/01/31 11:32:45;;;;;;;;;;;;;;;;;;5138033;27;19919;-72
2022/01/31 11:35:11;;;;;;;;;;;;;;;;;;5137461;27;20334;-73
2022/01/31 11:37:37;;;;;;;;;;;;;;;;;;5138798;27;19922;-72
2022/01/31 11:40:07;;;;;;;;;;;;;;;;;;5138299;27;20380;-72
2022/01/31 11:42:33;;;;;;;;;;;;;;;;;;5138475;27;19916;-72
2022/01/31 11:45:07;;;;;;;;;;;;;;;;;;5137693;27;19916;-73
2022/01/31 11:47:35;;;;;;;;;;;;;;;;;;5138496;27;19923;-74
2022/01/31 11:50:02;;;;;;;;;;;;;;;;;;5137962;27;19965;-72
2022/01/31 11:52:54;;;;;;;;;;;;;;;;;;5137651;27;20023;-73
2022/01/31 11:55:21;;;;;;;;;;;;;;;;;;5132775;27;20372;-73
2022/01/31 11:57:47;;;;;;;;;;;;;;;;;;5137624;27;19916;-73
2022/01/31 12:00:13;;;;;;;;;;;;;;;;;;5136993;27;19922;-73
2022/01/31 12:02:42;;;;;;;;;;;;;;;;;;5138091;27;20003;-73
2022/01/31 12:05:10;;;;;;;;;;;;;;;;;;5138291;27;20007;-73
2022/01/31 12:07:39;;;;;;;;;;;;;;;;;;5138273;27;20422;-73
2022/01/31 12:10:28;;;;;;;;;;;;;;;;;;5102476;27;19953;-73
2022/01/31 12:13:11;;;;;;;;;;;;;;;;;;5138140;27;19984;-73
2022/01/31 12:23:49;;;;;;;;;;;;;;;;;;5137157;27;19919;-73
2022/01/31 12:26:28;;;;;;;;;;;;;;;;;;5102011;27;20407;-72
2022/01/31 12:28:54;;;;;;;;;;;;;;;;;;5137089;27;19916;-72
2022/01/31 12:31:23;;;;;;;;;;;;;;;;;;5118392;27;19923;-73
2022/01/31 12:33:49;;;;;;;;;;;;;;;;;;5118783;27;19916;-72
2022/01/31 12:36:25;;;;;;;;;;;;;;;;;;5136916;27;19941;-72
2022/01/31 12:38:50;;;;;;;;;;;;;;;;;;5135979;27;20010;-73
2022/01/31 12:41:29;;;;;;;;;;;;;;;;;;5136885;27;20002;-72
2022/01/31 12:44:15;;;;;;;;;;;;;;;;;;5101532;27;19998;-72
2022/01/31 12:46:48;;;;;;;;;;;;;;;;;;5118059;27;20270;-72
2022/01/31 12:49:13;;;;;;;;;;;;;;;;;;5136188;27;19916;-72
2022/01/31 12:51:57;;;;;;;;;;;;;;;;;;5136463;27;20273;-72
2022/01/31 12:54:23;;;;;;;;;;;;;;;;;;5136537;27;19929;-73
2022/01/31 12:56:49;;;;;;;;;;;;;;;;;;5136519;27;19916;-73
2022/01/31 12:59:15;;;;;;;;;;;;;;;;;;5136696;27;20418;-73
2022/01/31 13:01:42;;;;;;;;;;;;;;;;;;5136269;27;19922;-73
2022/01/31 13:04:19;;;;;;;;;;;;;;;;;;5135789;27;19926;-72
2022/01/31 13:06:49;;;;;;;;;;;;;;;;;;5135884;27;19915;-73
2022/01/31 13:09:14;;;;;;;;;;;;;;;;;;5136041;27;20540;-73
2022/01/31 13:11:41;;;;;;;;;;;;;;;;;;5136311;27;19919;-73
2022/01/31 13:14:11;;;;;;;;;;;;;;;;;;5135851;27;19915;-73
2022/01/31 13:16:38;;;;;;;;;;;;;;;;;;5135913;27;20007;-72
2022/01/31 13:19:14;;;;;;;;;;;;;;;;;;5135968;27;19915;-73
2022/01/31 13:21:39;;;;;;;;;;;;;;;;;;5117453;27;19915;-73
2022/01/31 13:24:05;;;;;;;;;;;;;;;;;;5135763;27;19915;-73
2022/01/31 13:26:45;;;;;;;;;;;;;;;;;;5117402;27;20272;-72
2022/01/31 13:29:11;;;;;;;;;;;;;;;;;;5131868;27;19967;-72
2022/01/31 13:31:41;;;;;;;;;;;;;;;;;;5103195;28;19943;-71
2022/01/31 13:34:06;;;;;;;;;;;;;;;;;;5116511;28;19923;-72
2022/01/31 13:36:34;;;;;;;;;;;;;;;;;;5136479;27;19915;-72
2022/01/31 13:39:00;;;;;;;;;;;;;;;;;;5136042;27;19962;-72
2022/01/31 13:41:25;;;;;;;;;;;;;;;;;;5117504;27;19951;-73
2022/01/31 13:43:51;;;;;;;;;;;;;;;;;;5134984;27;19984;-72
2022/01/31 13:46:27;;;;;;;;;;;;;;;;;;5136087;27;20360;-72
2022/01/31 13:51:35;;;;;;;;;;;;;;;;;;5136890;27;19927;-73
2022/01/31 13:54:02;;;;;;;;;;;;;;;;;;5117451;27;19960;-72
2022/01/31 13:56:27;;;;;;;;;;;;;;;;;;5135659;27;19954;-72
2022/01/31 13:59:01;;;;;;;;;;;;;;;;;;5136112;27;19916;-72
2022/01/31 14:01:26;;;;;;;;;;;;;;;;;;5135796;27;20428;-72
2022/01/31 14:03:52;;;;;;;;;;;;;;;;;;5134351;27;19919;-72
2022/01/31 14:06:19;;;;;;;;;;;;;;;;;;5136222;27;20288;-72
2022/01/31 14:08:55;;;;;;;;;;;;;;;;;;5117818;27;19915;-73
2022/01/31 14:11:21;;;;;;;;;;;;;;;;;;5135864;27;19926;-73
2022/01/31 14:13:53;;;;;;;;;;;;;;;;;;5136305;27;19922;-72
2022/01/31 14:16:24;;;;;;;;;;;;;;;;;;5136824;27;19920;-72
2022/01/31 14:18:50;;;;;;;;;;;;;;;;;;5136502;27;19922;-72
2022/01/31 14:21:16;;;;;;;;;;;;;;;;;;5118643;28;19915;-73
2022/01/31 14:23:42;;;;;;;;;;;;;;;;;;5117700;28;19915;-73
2022/01/31 14:26:09;;;;;;;;;;;;;;;;;;5135908;28;19919;-73
2022/01/31 14:28:35;;;;;;;;;;;;;;;;;;5135954;27;19980;-73
2022/01/31 14:31:01;;;;;;;;;;;;;;;;;;5136423;28;19926;-73
2022/01/31 14:33:26;;;;;;;;;;;;;;;;;;5136848;28;19915;-73
2022/01/31 14:36:02;;;;;;;;;;;;;;;;;;5118774;28;19915;-73
2022/01/31 14:38:33;;;;;;;;;;;;;;;;;;5136370;27;19923;-73
2022/01/31 14:49:07;;;;;;;;;;;;;;;;;;5134598;27;19958;-72
2022/01/31 14:51:34;;;;;;;;;;;;;;;;;;5134337;28;19919;-72
2022/01/31 14:54:00;;;;;;;;;;;;;;;;;;5135199;28;19919;-72
2022/01/31 14:56:26;;;;;;;;;;;;;;;;;;5116733;28;19919;-72
2022/01/31 14:58:51;;;;;;;;;;;;;;;;;;5134570;27;20411;-72
2022/01/31 15:01:16;;;;;;;;;;;;;;;;;;5136546;27;19915;-72
2022/01/31 15:03:41;;;;;;;;;;;;;;;;;;5139271;27;19915;-72
2022/01/31 15:06:07;;;;;;;;;;;;;;;;;;5138453;27;19919;-72
2022/01/31 15:08:32;;;;;;;;;;;;;;;;;;5139229;27;20340;-72
2022/01/31 15:10:58;;;;;;;;;;;;;;;;;;5139608;27;19937;-72
2022/01/31 15:13:23;;;;;;;;;;;;;;;;;;5120854;27;19915;-72
2022/01/31 15:15:54;;;;;;;;;;;;;;;;;;5138773;27;19919;-72
2022/01/31 15:18:19;;;;;;;;;;;;;;;;;;5139171;27;19937;-72
2022/01/31 15:20:44;;;;;;;;;;;;;;;;;;5139640;27;20360;-72
2022/01/31 15:23:11;;;;;;;;;;;;;;;;;;5121045;27;20345;-72
2022/01/31 15:25:36;;;;;;;;;;;;;;;;;;5139069;27;19915;-72
2022/01/31 15:28:02;;;;;;;;;;;;;;;;;;5139463;27;20306;-72
2022/01/31 15:30:28;;;;;;;;;;;;;;;;;;5120431;27;20029;-72
2022/01/31 15:32:53;;;;;;;;;;;;;;;;;;5139290;27;19911;-72
2022/01/31 15:35:18;;;;;;;;;;;;;;;;;;5121255;27;19933;-72
2022/01/31 15:37:44;;;;;;;;;;;;;;;;;;5139484;27;19916;-72
2022/01/31 15:40:11;;;;;;;;;;;;;;;;;;5138847;27;19915;-72
2022/01/31 15:42:37;;;;;;;;;;;;;;;;;;5139277;27;20455;-71
2022/01/31 15:45:04;;;;;;;;;;;;;;;;;;5139146;27;19958;-72
2022/01/31 15:47:29;;;;;;;;;;;;;;;;;;5139426;27;19915;-72
2022/01/31 15:49:55;;;;;;;;;;;;;;;;;;5139155;27;19923;-72
2022/01/31 15:52:20;;;;;;;;;;;;;;;;;;5139238;27;20014;-72
2022/01/31 15:54:45;;;;;;;;;;;;;;;;;;5104009;27;19922;-72
2022/01/31 15:57:11;;;;;;;;;;;;;;;;;;5139211;27;20417;-72
2022/01/31 15:59:36;;;;;;;;;;;;;;;;;;5138946;27;19916;-72
2022/01/31 16:02:04;;;;;;;;;;;;;;;;;;5138583;27;19960;-72
2022/01/31 16:04:30;;;;;;;;;;;;;;;;;;5139148;27;19915;-72
2022/01/31 16:06:55;;;;;;;;;;;;;;;;;;5120703;27;19930;-72
2022/01/31 16:09:21;;;;;;;;;;;;;;;;;;5138982;27;19915;-72
2022/01/31 16:11:52;;;;;;;;;;;;;;;;;;5138152;27;19920;-72
2022/01/31 16:14:18;;;;;;;;;;;;;;;;;;5138008;27;19964;-72
2022/01/31 16:16:43;;;;;;;;;;;;;;;;;;5138694;27;19927;-72
2022/01/31 16:19:09;;;;;;;;;;;;;;;;;;5138653;27;20018;-72
2022/01/31 16:21:34;;;;;;;;;;;;;;;;;;5137103;27;19938;-72
2022/01/31 16:24:00;;;;;;;;;;;;;;;;;;5137012;27;19923;-72
2022/01/31 16:26:25;;;;;;;;;;;;;;;;;;5117304;27;19915;-72
2022/01/31 16:28:51;;;;;;;;;;;;;;;;;;5136982;27;20414;-72
2022/01/31 16:31:17;;;;;;;;;;;;;;;;;;5136105;27;19981;-72
2022/01/31 16:33:42;;;;;;;;;;;;;;;;;;5118442;27;19962;-73
2022/01/31 16:36:07;;;;;;;;;;;;;;;;;;5136916;27;19919;-73
2022/01/31 16:38:33;;;;;;;;;;;;;;;;;;5136544;27;19921;-73
2022/01/31 16:40:58;;;;;;;;;;;;;;;;;;5136761;27;19992;-73
2022/01/31 16:43:23;;;;;;;;;;;;;;;;;;5136969;27;19915;-73
2022/01/31 16:45:52;;;;;;;;;;;;;;;;;;5137031;27;19968;-72
2022/01/31 16:48:17;;;;;;;;;;;;;;;;;;5136974;27;19916;-73
2022/01/31 16:50:43;;;;;;;;;;;;;;;;;;5136946;27;19923;-73
2022/01/31 16:53:09;;;;;;;;;;;;;;;;;;5118327;27;19958;-72
2022/01/31 16:55:35;;;;;;;;;;;;;;;;;;5118480;27;20297;-72
2022/01/31 16:58:01;;;;;;;;;;;;;;;;;;5118354;27;19916;-73
2022/01/31 17:00:27;;;;;;;;;;;;;;;;;;5136392;27;20338;-73
2022/01/31 17:02:53;;;;;;;;;;;;;;;;;;5135829;27;19915;-73
2022/01/31 17:05:18;;;;;;;;;;;;;;;;;;5101236;27;19923;-73
2022/01/31 17:07:44;;;;;;;;;;;;;;;;;;5136549;27;19916;-72
2022/01/31 17:10:10;;;;;;;;;;;;;;;;;;5100907;27;19915;-72
2022/01/31 17:12:36;;;;;;;;;;;;;;;;;;5136738;27;20502;-73
2022/01/31 17:15:02;;;;;;;;;;;;;;;;;;5117941;27;19990;-72
2022/01/31 17:17:28;;;;;;;;;;;;;;;;;;5136346;27;20007;-73
2022/01/31 17:19:53;;;;;;;;;;;;;;;;;;5136416;27;19919;-73
2022/01/31 17:22:19;;;;;;;;;;;;;;;;;;5136635;27;19915;-72
2022/01/31 17:24:45;;;;;;;;;;;;;;;;;;5136159;27;19929;-73
2022/01/31 17:27:10;;;;;;;;;;;;;;;;;;5113164;27;19968;-73
2022/01/31 17:29:36;;;;;;;;;;;;;;;;;;5125827;27;19916;-73
2022/01/31 17:32:01;;;;;;;;;;;;;;;;;;5124093;27;19920;-73